Time;durP1;ratioP1;P1;durP2;ratioP2;P2;SDS_P1;SDS_P2;PMS_P1;PMS_P2;Temp;Humidity;BMP_temperature;BMP_pressure;BME280_temperature;BME280_humidity;BME280_pressure;Samples;Min_cycle;Max_cycle;Signal;HPM_P1;HPM_P2
2023/03/01 00:00:28;;;;;;;8.30;7.40;;;;;19.80;101890.00;;;;2055434;28;20287;-75
2023/03/01 00:01:29;;;;;;;8.60;6.70;;;;;19.80;101890.00;;;;2056560;28;20219;-75
2023/03/01 00:02:30;;;;;;;8.52;7.32;;;;;19.70;101897.00;;;;2056327;28;20262;-75
2023/03/01 00:03:30;;;;;;;7.43;6.73;;;;;19.80;101899.00;;;;2063310;28;20207;-75
2023/03/01 00:04:30;;;;;;;9.40;7.40;;;;;19.70;101825.00;;;;2061457;28;20286;-75
2023/03/01 00:05:31;;;;;;;7.33;6.63;;;;;19.80;101899.00;;;;2056342;28;20253;-75
2023/03/01 00:06:32;;;;;;;10.43;7.45;;;;;19.70;101895.00;;;;2056012;28;20207;-75
2023/03/01 00:07:32;;;;;;;8.27;7.47;;;;;19.80;101902.00;;;;2055705;28;20259;-75
2023/03/01 00:08:33;;;;;;;7.63;6.83;;;;;19.70;101898.00;;;;2059295;28;20219;-75
2023/03/01 00:09:33;;;;;;;7.77;7.07;;;;;19.70;101904.00;;;;2055295;28;20223;-75
2023/03/01 00:10:33;;;;;;;8.43;7.27;;;;;19.70;101898.00;;;;2055591;28;20212;-75
2023/03/01 00:11:34;;;;;;;8.40;7.50;;;;;19.70;101896.00;;;;2055779;28;20298;-75
2023/03/01 00:12:34;;;;;;;8.33;6.97;;;;;19.70;101892.00;;;;2055954;28;20211;-75
2023/03/01 00:13:34;;;;;;;7.97;6.60;;;;;19.70;101901.00;;;;2062949;28;20561;-75
2023/03/01 00:14:35;;;;;;;8.57;7.00;;;;;19.70;101904.00;;;;2059327;28;20754;-75
2023/03/01 00:15:39;;;;;;;8.23;7.23;;;;;19.70;101872.00;;;;2055994;28;20241;-75
2023/03/01 00:16:40;;;;;;;9.82;7.30;;;;;19.70;101884.00;;;;2055099;28;20550;-75
2023/03/01 00:17:40;;;;;;;8.15;6.70;;;;;19.70;101900.00;;;;2055316;28;20208;-75
2023/03/01 00:18:41;;;;;;;7.60;5.77;;;;;19.70;101835.00;;;;2064038;28;20632;-74
2023/03/01 00:19:41;;;;;;;7.40;6.70;;;;;19.70;101883.00;;;;2071372;28;20773;-75
2023/03/01 00:20:41;;;;;;;7.60;6.80;;;;;19.70;101891.00;;;;2063803;28;20704;-75
2023/03/01 00:21:42;;;;;;;7.17;6.47;;;;;19.70;101888.00;;;;2055224;28;20788;-75
2023/03/01 00:22:42;;;;;;;8.07;6.63;;;;;19.60;101889.00;;;;2055328;28;20841;-75
2023/03/01 00:23:42;;;;;;;6.50;5.90;;;;;19.70;101886.00;;;;2063406;28;20215;-75
2023/03/01 00:24:43;;;;;;;7.20;6.50;;;;;19.70;101854.00;;;;2059533;28;20286;-75
2023/03/01 00:25:43;;;;;;;7.53;6.83;;;;;19.70;101890.00;;;;2054818;28;20603;-75
2023/03/01 00:26:43;;;;;;;7.17;6.30;;;;;19.60;101876.00;;;;2055469;28;20244;-75
2023/03/01 00:27:44;;;;;;;7.00;6.30;;;;;19.60;101884.00;;;;2055867;28;20215;-75
2023/03/01 00:28:44;;;;;;;7.00;6.30;;;;;19.60;101880.00;;;;2058811;28;20249;-75
2023/03/01 00:29:45;;;;;;;7.20;6.30;;;;;19.60;101883.00;;;;2055312;28;20253;-76
2023/03/01 00:30:45;;;;;;;6.97;6.33;;;;;19.60;101875.00;;;;2055864;28;20223;-76
2023/03/01 00:31:45;;;;;;;6.93;6.03;;;;;19.60;101877.00;;;;2055418;28;20227;-76
2023/03/01 00:32:46;;;;;;;6.30;5.70;;;;;19.60;101876.00;;;;2059588;28;20218;-76
2023/03/01 00:33:46;;;;;;;6.40;5.80;;;;;19.60;101873.00;;;;2055452;28;20227;-75
2023/03/01 00:34:54;;;;;;;7.00;6.20;;;;;19.60;101894.00;;;;2062770;28;20230;-76
2023/03/01 00:35:54;;;;;;;7.28;5.60;;;;;19.60;101864.00;;;;2055207;28;20214;-75
2023/03/01 00:36:54;;;;;;;7.07;6.30;;;;;19.60;101865.00;;;;2055538;28;20719;-76
2023/03/01 00:37:57;;;;;;;8.13;6.57;;;;;19.60;101864.00;;;;2055946;28;20683;-76
2023/03/01 00:38:57;;;;;;;7.20;6.50;;;;;19.60;101851.00;;;;2049650;28;20219;-75
2023/03/01 00:39:58;;;;;;;6.70;5.93;;;;;19.60;101872.00;;;;2056079;28;20270;-74
2023/03/01 00:41:04;;;;;;;6.20;5.60;;;;;19.60;101879.00;;;;2055658;28;20286;-74
2023/03/01 00:42:04;;;;;;;7.13;6.43;;;;;19.60;101856.00;;;;2053527;28;20620;-74
2023/03/01 00:43:04;;;;;;;6.03;5.43;;;;;19.50;101870.00;;;;2056466;28;20211;-74
2023/03/01 00:44:05;;;;;;;6.07;5.47;;;;;19.60;101870.00;;;;2062852;28;20276;-74
2023/03/01 00:45:07;;;;;;;6.77;6.07;;;;;19.50;101863.00;;;;2058169;28;20218;-74
2023/03/01 00:46:14;;;;;;;6.72;5.90;;;;;19.50;101870.00;;;;2053707;28;20220;-74
2023/03/01 00:47:15;;;;;;;7.55;5.95;;;;;19.50;101863.00;;;;2055804;28;20207;-74
2023/03/01 00:48:15;;;;;;;8.47;6.37;;;;;19.50;101873.00;;;;2058168;28;20726;-74
2023/03/01 00:49:15;;;;;;;6.27;5.70;;;;;19.50;101855.00;;;;2056470;28;20211;-74
2023/03/01 00:50:16;;;;;;;7.50;5.80;;;;;19.50;101828.00;;;;2057561;28;20238;-74
2023/03/01 00:51:21;;;;;;;6.57;5.97;;;;;19.50;101858.00;;;;2056984;28;20469;-73
2023/03/01 00:52:21;;;;;;;6.93;6.22;;;;;19.50;101848.00;;;;2056036;28;20294;-73
2023/03/01 00:53:22;;;;;;;6.63;5.93;;;;;19.50;101849.00;;;;2058663;28;20558;-74
2023/03/01 00:54:22;;;;;;;6.73;6.03;;;;;19.50;101848.00;;;;2063660;28;20725;-74
2023/03/01 00:55:23;;;;;;;5.73;5.20;;;;;19.50;101845.00;;;;2056210;28;20605;-73
2023/03/01 00:56:23;;;;;;;6.50;5.53;;;;;19.50;101842.00;;;;2055964;28;20219;-73
2023/03/01 00:57:23;;;;;;;7.67;6.90;;;;;19.50;101858.00;;;;2055905;28;20311;-74
2023/03/01 00:58:24;;;;;;;5.43;4.93;;;;;19.50;101850.00;;;;2058898;28;20203;-73
2023/03/01 00:59:24;;;;;;;6.50;5.73;;;;;19.40;101850.00;;;;2056545;28;20215;-74
2023/03/01 01:00:27;;;;;;;6.47;5.50;;;;;19.50;101848.00;;;;2055864;28;20207;-74
2023/03/01 01:01:31;;;;;;;6.53;5.70;;;;;19.40;101847.00;;;;2055498;28;20290;-73
2023/03/01 01:02:32;;;;;;;6.40;5.80;;;;;19.40;101850.00;;;;2055912;28;20215;-73
2023/03/01 01:03:32;;;;;;;6.50;5.83;;;;;19.40;101853.00;;;;2060263;28;20242;-74
2023/03/01 01:04:33;;;;;;;8.17;5.67;;;;;19.40;101842.00;;;;2063664;28;20822;-74
2023/03/01 01:05:34;;;;;;;6.10;5.50;;;;;19.40;101838.00;;;;2055617;28;20645;-74
2023/03/01 01:06:37;;;;;;;7.03;6.32;;;;;19.40;101848.00;;;;2055982;28;20227;-74
2023/03/01 01:07:37;;;;;;;6.47;5.88;;;;;19.40;101846.00;;;;2053107;28;20294;-74
2023/03/01 01:08:38;;;;;;;7.00;6.30;;;;;19.40;101851.00;;;;2059382;28;20590;-73
2023/03/01 01:09:38;;;;;;;6.53;5.93;;;;;19.40;101843.00;;;;2055722;28;20233;-74
2023/03/01 01:10:38;;;;;;;6.13;5.60;;;;;19.40;101846.00;;;;2055947;28;20208;-74
2023/03/01 01:11:39;;;;;;;6.83;5.87;;;;;19.40;101823.00;;;;2055876;28;20680;-73
2023/03/01 01:12:39;;;;;;;6.60;5.90;;;;;19.40;101838.00;;;;2054807;28;20673;-73
2023/03/01 01:13:40;;;;;;;6.00;5.40;;;;;19.40;101837.00;;;;2058257;28;20837;-74
2023/03/01 01:14:40;;;;;;;5.57;5.07;;;;;19.40;101836.00;;;;2061836;28;20722;-74
2023/03/01 01:15:40;;;;;;;6.10;5.50;;;;;19.40;101831.00;;;;2055139;28;20704;-73
2023/03/01 01:16:41;;;;;;;6.23;5.73;;;;;19.40;101836.00;;;;2056035;28;20691;-74
2023/03/01 01:17:41;;;;;;;6.17;5.60;;;;;19.40;101838.00;;;;2055507;28;20262;-74
2023/03/01 01:18:42;;;;;;;6.20;5.60;;;;;19.40;101840.00;;;;2060149;28;20631;-73
2023/03/01 01:19:42;;;;;;;5.90;5.30;;;;;19.30;101831.00;;;;2046667;28;20286;-73
2023/03/01 01:20:42;;;;;;;6.30;5.60;;;;;19.30;101832.00;;;;2046409;28;20245;-73
2023/03/01 01:21:43;;;;;;;5.57;5.10;;;;;19.30;101829.00;;;;2054983;28;20711;-74
2023/03/01 01:22:43;;;;;;;7.77;5.90;;;;;19.30;101827.00;;;;2055423;28;20227;-74
2023/03/01 01:23:43;;;;;;;6.87;5.80;;;;;19.40;101824.00;;;;2059953;28;20289;-74
2023/03/01 01:24:44;;;;;;;5.90;5.30;;;;;19.30;101824.00;;;;2062412;28;20249;-74
2023/03/01 01:25:44;;;;;;;6.20;5.50;;;;;19.40;101825.00;;;;2056001;28;20574;-74
2023/03/01 01:26:44;;;;;;;6.10;5.50;;;;;19.40;101821.00;;;;2055640;28;20718;-74
2023/03/01 01:27:45;;;;;;;6.07;5.47;;;;;19.40;101820.00;;;;2055453;28;20703;-73
2023/03/01 01:28:47;;;;;;;6.20;5.67;;;;;19.40;101808.00;;;;2058565;28;20211;-74
2023/03/01 01:29:47;;;;;;;6.22;5.32;;;;;19.30;101811.00;;;;2055208;28;20223;-74
2023/03/01 01:30:47;;;;;;;6.03;5.47;;;;;19.30;101816.00;;;;2055845;28;20687;-73
2023/03/01 01:31:48;;;;;;;6.17;5.57;;;;;19.30;101814.00;;;;2055439;28;20242;-74
2023/03/01 01:32:48;;;;;;;5.80;5.30;;;;;19.30;101840.00;;;;2055164;28;20223;-74
2023/03/01 01:33:49;;;;;;;6.03;5.40;;;;;19.30;101810.00;;;;2060208;28;20214;-74
2023/03/01 01:34:49;;;;;;;5.37;4.87;;;;;19.00;101807.00;;;;2062670;28;20234;-74
2023/03/01 01:35:49;;;;;;;6.07;5.53;;;;;19.30;101805.00;;;;2055682;28;20226;-74
2023/03/01 01:36:53;;;;;;;5.70;5.20;;;;;19.30;101811.00;;;;2055302;28;20208;-74
2023/03/01 01:37:54;;;;;;;6.25;5.65;;;;;19.30;101806.00;;;;2055449;28;20576;-73
2023/03/01 01:38:54;;;;;;;5.87;5.27;;;;;19.30;101812.00;;;;2057983;28;20217;-73
2023/03/01 01:39:54;;;;;;;6.00;5.40;;;;;19.30;101808.00;;;;2054905;28;20614;-74
2023/03/01 01:40:55;;;;;;;6.43;5.73;;;;;19.30;101810.00;;;;2055040;28;20211;-74
2023/03/01 01:41:55;;;;;;;6.87;5.40;;;;;19.30;101812.00;;;;2055409;28;20281;-74
2023/03/01 01:42:55;;;;;;;5.80;5.20;;;;;19.30;101804.00;;;;2055441;28;20695;-74
2023/03/01 01:44:14;;;;;;;5.80;5.30;;;;;19.30;101807.00;;;;2060702;28;20605;-74
2023/03/01 01:45:34;;;;;;;6.28;5.68;;;;;19.30;101803.00;;;;2059469;28;20742;-74
2023/03/01 01:46:36;;;;;;;5.30;4.80;;;;;19.20;101819.00;;;;2055837;28;20215;-74
2023/03/01 01:47:36;;;;;;;5.65;5.15;;;;;19.20;101808.00;;;;2054640;28;20397;-74
2023/03/01 01:48:43;;;;;;;7.47;5.40;;;;;19.20;101802.00;;;;2056920;28;20468;-74
2023/03/01 01:49:46;;;;;;;5.43;4.88;;;;;19.20;101816.00;;;;2055516;28;20715;-74
2023/03/01 01:50:47;;;;;;;6.53;5.85;;;;;19.20;101799.00;;;;2045294;28;20215;-73
2023/03/01 01:51:48;;;;;;;7.07;5.45;;;;;19.20;101766.00;;;;2047072;28;20283;-73
2023/03/01 01:52:49;;;;;;;6.88;5.82;;;;;19.20;101805.00;;;;2046942;28;20220;-73
2023/03/01 01:53:51;;;;;;;6.00;5.40;;;;;19.10;101785.00;;;;2050354;28;20203;-73
2023/03/01 01:54:54;;;;;;;6.30;5.70;;;;;19.20;101801.00;;;;2055057;28;20246;-73
2023/03/01 01:55:57;;;;;;;6.28;5.55;;;;;19.20;101686.00;;;;2055128;28;20695;-73
2023/03/01 01:57:00;;;;;;;5.63;5.13;;;;;19.20;101807.00;;;;2055665;28;20243;-69
2023/03/01 01:58:02;;;;;;;6.05;5.55;;;;;19.20;101809.00;;;;2062464;28;20266;-73
2023/03/01 01:59:03;;;;;;;6.40;5.80;;;;;19.20;101803.00;;;;2053537;28;20203;-73
2023/03/01 02:00:08;;;;;;;6.10;5.50;;;;;19.20;101799.00;;;;2054580;28;20219;-73
2023/03/01 02:01:09;;;;;;;6.10;5.50;;;;;19.20;101804.00;;;;2055331;28;20216;-72
2023/03/01 02:02:09;;;;;;;5.30;4.80;;;;;19.20;101806.00;;;;2054897;28;20222;-73
2023/03/01 02:03:11;;;;;;;5.40;4.90;;;;;19.10;101802.00;;;;2046807;28;20213;-73
2023/03/01 02:04:12;;;;;;;5.68;5.07;;;;;19.10;101810.00;;;;2060845;28;20219;-73
2023/03/01 02:05:16;;;;;;;6.30;5.33;;;;;19.10;101804.00;;;;2060287;28;20219;-73
2023/03/01 02:06:31;;;;;;;5.97;5.38;;;;;19.20;101794.00;;;;2054254;28;20627;-72
2023/03/01 02:07:31;;;;;;;5.50;5.00;;;;;19.10;101805.00;;;;2059564;28;20222;-75
2023/03/01 02:08:33;;;;;;;5.13;4.73;;;;;19.10;101801.00;;;;2054278;28;20232;-74
2023/03/01 02:09:34;;;;;;;6.47;5.43;;;;;19.10;101803.00;;;;2050062;28;20295;-73
2023/03/01 02:10:34;;;;;;;5.90;5.20;;;;;19.10;101800.00;;;;2055065;28;20691;-73
2023/03/01 02:11:37;;;;;;;5.47;4.97;;;;;19.10;101803.00;;;;2055270;28;20710;-73
2023/03/01 02:12:37;;;;;;;5.55;5.05;;;;;19.10;101797.00;;;;2047062;28;21144;-73
2023/03/01 02:13:38;;;;;;;5.20;4.70;;;;;19.10;101800.00;;;;2047805;28;20222;-73
2023/03/01 02:14:38;;;;;;;5.70;5.10;;;;;19.10;101797.00;;;;2054721;28;20273;-74
2023/03/01 02:15:39;;;;;;;5.47;4.80;;;;;19.10;101789.00;;;;2054731;28;20733;-73
2023/03/01 02:16:39;;;;;;;5.60;5.10;;;;;19.10;101741.00;;;;2054989;28;20223;-73
2023/03/01 02:17:40;;;;;;;5.93;5.33;;;;;19.10;101781.00;;;;2045678;28;20226;-74
2023/03/01 02:18:40;;;;;;;5.63;5.07;;;;;19.10;101798.00;;;;2050387;28;20278;-73
2023/03/01 02:20:11;;;;;;;6.20;5.37;;;;;19.10;101794.00;;;;2057291;28;20227;-74
2023/03/01 02:21:30;;;;;;;5.38;4.88;;;;;19.10;101801.00;;;;2061400;28;20297;-74
2023/03/01 02:22:31;;;;;;;5.43;4.90;;;;;19.10;101795.00;;;;2055375;28;20565;-74
2023/03/01 02:23:31;;;;;;;6.15;5.55;;;;;19.10;101790.00;;;;2054413;28;20223;-74
2023/03/01 02:24:40;;;;;;;5.70;5.20;;;;;19.10;101789.00;;;;2054239;28;20215;-74
2023/03/01 02:25:49;;;;;;;5.50;4.95;;;;;19.10;101787.00;;;;2053111;28;20690;-74
2023/03/01 02:26:51;;;;;;;5.43;4.93;;;;;19.10;101735.00;;;;2062640;28;20796;-74
2023/03/01 02:27:54;;;;;;;5.35;4.85;;;;;19.00;101785.00;;;;2055535;28;20247;-74
2023/03/01 02:28:54;;;;;;;6.10;5.40;;;;;19.00;101788.00;;;;2048925;28;20213;-74
2023/03/01 02:29:55;;;;;;;5.13;4.67;;;;;19.10;101785.00;;;;2053438;28;20230;-74
2023/03/01 02:32:15;;;;;;;5.43;4.93;;;;;19.00;101783.00;;;;2062677;28;20233;-74
2023/03/01 02:33:15;;;;;;;5.47;5.00;;;;;19.00;101787.00;;;;2055462;28;20226;-74
2023/03/01 02:34:17;;;;;;;5.90;5.27;;;;;19.00;101780.00;;;;2059267;28;20753;-74
2023/03/01 02:35:18;;;;;;;5.90;5.35;;;;;19.00;101785.00;;;;2052882;28;20997;-74
2023/03/01 02:36:28;;;;;;;5.30;4.90;;;;;19.00;101781.00;;;;2038832;29;20252;-74
2023/03/01 02:37:28;;;;;;;5.90;5.35;;;;;19.10;101753.00;;;;2040337;28;20228;-73
2023/03/01 02:38:29;;;;;;;5.50;5.00;;;;;19.00;101785.00;;;;2045599;28;20260;-75
2023/03/01 02:39:33;;;;;;;5.53;5.03;;;;;19.00;101780.00;;;;2049397;28;20208;-74
2023/03/01 02:40:33;;;;;;;5.55;5.05;;;;;19.00;101783.00;;;;2045362;28;20208;-74
2023/03/01 02:41:38;;;;;;;5.33;4.83;;;;;19.00;101776.00;;;;2037987;29;20209;-74
2023/03/01 02:42:50;;;;;;;5.72;5.22;;;;;19.00;101772.00;;;;2039075;28;20628;-75
2023/03/01 02:43:50;;;;;;;5.60;5.10;;;;;19.00;101750.00;;;;2048243;28;20220;-74
2023/03/01 02:44:51;;;;;;;5.67;5.17;;;;;19.00;101781.00;;;;2053904;28;20222;-74
2023/03/01 02:45:52;;;;;;;5.70;5.20;;;;;19.00;101784.00;;;;2056150;28;20350;-74
2023/03/01 02:46:54;;;;;;;5.90;5.28;;;;;19.00;101785.00;;;;2053364;28;20253;-74
2023/03/01 02:47:55;;;;;;;5.43;4.93;;;;;19.00;101785.00;;;;2037551;28;20228;-74
2023/03/01 02:48:57;;;;;;;5.57;4.97;;;;;19.00;101773.00;;;;2047510;28;20254;-74
2023/03/01 02:49:58;;;;;;;5.63;5.03;;;;;19.00;101775.00;;;;2054566;28;20569;-75
2023/03/01 02:51:22;;;;;;;5.57;5.07;;;;;18.90;101788.00;;;;2062123;28;20590;-74
2023/03/01 02:52:41;;;;;;;6.05;5.50;;;;;19.00;101782.00;;;;2053295;28;20313;-74
2023/03/01 02:53:43;;;;;;;5.60;5.00;;;;;19.00;101784.00;;;;2052480;28;20291;-74
2023/03/01 02:54:47;;;;;;;5.95;4.97;;;;;19.00;101786.00;;;;2061659;28;20318;-74
2023/03/01 02:55:47;;;;;;;6.53;5.70;;;;;18.90;101722.00;;;;2049807;28;20251;-74
2023/03/01 02:56:48;;;;;;;5.10;4.70;;;;;18.60;101789.00;;;;2046090;28;20523;-73
2023/03/01 02:57:51;;;;;;;6.03;5.43;;;;;18.90;101789.00;;;;2046021;28;20216;-74
2023/03/01 02:58:52;;;;;;;5.10;4.70;;;;;18.90;101785.00;;;;2046556;28;20638;-74
2023/03/01 02:59:54;;;;;;;4.97;4.57;;;;;18.90;101797.00;;;;2057100;28;20228;-74
2023/03/01 03:00:54;;;;;;;5.20;4.75;;;;;18.90;101796.00;;;;2053288;28;20215;-75
2023/03/01 03:01:55;;;;;;;7.50;5.07;;;;;18.90;101794.00;;;;2053327;28;20251;-74
2023/03/01 03:02:56;;;;;;;5.90;5.40;;;;;18.90;101787.00;;;;2054362;28;20223;-74
2023/03/01 03:03:57;;;;;;;5.15;4.75;;;;;18.90;101780.00;;;;2054839;28;20215;-75
2023/03/01 03:04:57;;;;;;;5.90;5.30;;;;;19.00;101733.00;;;;2062931;28;20229;-74
2023/03/01 03:05:57;;;;;;;5.53;5.00;;;;;18.90;101789.00;;;;2057714;28;20246;-74
2023/03/01 03:06:58;;;;;;;6.20;5.70;;;;;18.90;101777.00;;;;2054506;28;20249;-74
2023/03/01 03:07:59;;;;;;;4.73;4.33;;;;;18.90;101787.00;;;;2054061;28;20643;-74
2023/03/01 03:08:59;;;;;;;4.78;4.35;;;;;18.90;101777.00;;;;2055921;28;20214;-74
2023/03/01 03:10:01;;;;;;;5.77;5.17;;;;;18.90;101778.00;;;;2057248;28;20218;-74
2023/03/01 03:11:02;;;;;;;6.18;5.57;;;;;18.90;101776.00;;;;2054828;28;20730;-74
2023/03/01 03:12:02;;;;;;;5.33;4.93;;;;;18.90;101771.00;;;;2054528;28;20239;-74
2023/03/01 03:13:04;;;;;;;4.83;4.40;;;;;18.90;101786.00;;;;2054977;28;20274;-74
2023/03/01 03:14:05;;;;;;;6.30;5.00;;;;;18.90;101781.00;;;;2056137;28;20270;-75
2023/03/01 03:15:08;;;;;;;5.82;5.10;;;;;18.90;101773.00;;;;2062953;28;20284;-74
2023/03/01 03:16:08;;;;;;;5.65;5.00;;;;;18.90;101782.00;;;;2056361;28;20207;-74
2023/03/01 03:17:09;;;;;;;4.77;4.37;;;;;18.90;101784.00;;;;2055121;28;20211;-74
2023/03/01 03:18:12;;;;;;;6.27;5.67;;;;;18.90;101760.00;;;;2054373;28;20215;-74
2023/03/01 03:19:12;;;;;;;6.53;5.20;;;;;18.90;101777.00;;;;2067607;28;20321;-73
2023/03/01 03:20:18;;;;;;;5.20;4.80;;;;;18.80;101782.00;;;;2056458;28;20208;-74
2023/03/01 03:21:18;;;;;;;5.32;4.93;;;;;18.80;101781.00;;;;2046676;28;20244;-74
2023/03/01 03:22:19;;;;;;;5.43;4.93;;;;;18.90;101785.00;;;;2060898;28;20210;-74
2023/03/01 03:23:20;;;;;;;5.70;5.10;;;;;18.80;101783.00;;;;2060791;28;20269;-74
2023/03/01 03:24:21;;;;;;;5.82;5.30;;;;;18.80;101787.00;;;;2058269;28;20227;-74
2023/03/01 03:25:21;;;;;;;5.60;5.10;;;;;18.80;101779.00;;;;2063022;28;20286;-75
2023/03/01 03:26:22;;;;;;;6.00;5.37;;;;;18.80;101777.00;;;;2055257;28;20663;-74
2023/03/01 03:27:22;;;;;;;5.50;5.00;;;;;18.80;101788.00;;;;2054496;28;20675;-74
2023/03/01 03:28:22;;;;;;;5.00;4.60;;;;;18.80;101786.00;;;;2054240;28;20233;-74
2023/03/01 03:29:22;;;;;;;5.43;4.93;;;;;18.80;101782.00;;;;2060628;28;20222;-75
2023/03/01 03:30:32;;;;;;;5.17;4.77;;;;;18.80;101784.00;;;;2058201;28;20225;-74
2023/03/01 03:31:32;;;;;;;5.38;4.97;;;;;18.80;101789.00;;;;2057203;28;20288;-74
2023/03/01 03:32:32;;;;;;;5.60;5.10;;;;;18.80;101757.00;;;;2056836;28;20730;-74
2023/03/01 03:33:33;;;;;;;5.80;5.07;;;;;18.80;101777.00;;;;2056610;28;20273;-74
2023/03/01 03:34:33;;;;;;;5.73;5.23;;;;;18.80;101773.00;;;;2060178;28;20202;-74
2023/03/01 03:35:39;;;;;;;6.20;5.70;;;;;18.80;101768.00;;;;2062779;28;20253;-74
2023/03/01 03:36:39;;;;;;;6.15;5.30;;;;;18.80;101772.00;;;;2056240;28;20249;-75
2023/03/01 03:38:58;;;;;;;5.32;4.90;;;;;18.80;101766.00;;;;2057415;28;20238;-74
2023/03/01 03:39:59;;;;;;;5.78;5.13;;;;;18.80;101758.00;;;;2060944;28;20273;-74
2023/03/01 03:41:02;;;;;;;6.07;5.30;;;;;18.80;101769.00;;;;2056939;28;20218;-74
2023/03/01 03:42:02;;;;;;;5.22;4.72;;;;;18.80;101728.00;;;;2056928;28;20210;-74
2023/03/01 03:43:08;;;;;;;5.50;5.00;;;;;18.80;101759.00;;;;2057398;28;20300;-74
2023/03/01 03:44:08;;;;;;;5.65;5.15;;;;;18.80;101754.00;;;;2057480;28;20265;-74
2023/03/01 03:45:09;;;;;;;5.93;5.37;;;;;18.80;101763.00;;;;2065503;28;20825;-75
2023/03/01 03:46:10;;;;;;;5.93;5.33;;;;;18.80;101753.00;;;;2059864;28;20742;-74
2023/03/01 03:47:10;;;;;;;5.78;5.28;;;;;18.80;101758.00;;;;2057465;28;20215;-74
2023/03/01 03:48:10;;;;;;;6.90;4.87;;;;;18.80;101704.00;;;;2056916;28;20215;-74
2023/03/01 03:49:11;;;;;;;5.70;5.20;;;;;18.80;101764.00;;;;2057584;28;20214;-74
2023/03/01 03:50:14;;;;;;;6.93;5.57;;;;;18.80;101761.00;;;;2062027;28;20266;-74
2023/03/01 03:51:15;;;;;;;5.30;4.80;;;;;18.80;101759.00;;;;2065211;28;20207;-74
2023/03/01 03:52:15;;;;;;;5.35;4.88;;;;;18.80;101757.00;;;;2059131;28;20287;-74
2023/03/01 03:53:16;;;;;;;5.37;4.87;;;;;18.80;101759.00;;;;2057473;28;20207;-74
2023/03/01 03:54:17;;;;;;;5.30;4.80;;;;;18.80;101753.00;;;;2056341;28;20230;-74
2023/03/01 03:55:19;;;;;;;5.40;4.83;;;;;18.70;101748.00;;;;2065475;28;20221;-75
2023/03/01 03:56:19;;;;;;;5.43;4.93;;;;;18.70;101744.00;;;;2059504;28;21065;-74
2023/03/01 03:57:21;;;;;;;5.77;5.20;;;;;18.70;101739.00;;;;2057448;28;20203;-74
2023/03/01 03:58:22;;;;;;;6.57;5.20;;;;;18.70;101741.00;;;;2057045;28;20570;-75
2023/03/01 03:59:22;;;;;;;5.68;5.10;;;;;18.70;101747.00;;;;2057855;28;20309;-74
2023/03/01 04:00:23;;;;;;;6.03;5.53;;;;;18.70;101713.00;;;;2058893;28;20227;-74
2023/03/01 04:01:23;;;;;;;5.93;5.25;;;;;18.70;101741.00;;;;2056378;28;21048;-75
2023/03/01 04:02:25;;;;;;;5.50;5.00;;;;;18.70;101716.00;;;;2056768;28;20268;-75
2023/03/01 04:03:25;;;;;;;5.72;5.20;;;;;18.70;101736.00;;;;2057345;28;20225;-75
2023/03/01 04:04:26;;;;;;;6.00;5.40;;;;;18.70;101741.00;;;;2058942;28;20223;-74
2023/03/01 04:05:26;;;;;;;5.03;4.53;;;;;18.70;101735.00;;;;2065510;28;20229;-74
2023/03/01 04:06:27;;;;;;;5.77;4.80;;;;;18.70;101731.00;;;;2057477;28;20250;-75
2023/03/01 04:07:27;;;;;;;5.57;5.07;;;;;18.70;101743.00;;;;2057094;28;20246;-74
2023/03/01 04:08:27;;;;;;;5.77;5.27;;;;;18.70;101738.00;;;;2056741;28;20507;-74
2023/03/01 04:09:30;;;;;;;5.63;5.13;;;;;18.70;101737.00;;;;2058813;28;20223;-74
2023/03/01 04:10:31;;;;;;;5.43;4.93;;;;;18.70;101714.00;;;;2059021;28;20276;-74
2023/03/01 04:11:34;;;;;;;6.70;4.88;;;;;18.70;101733.00;;;;2056629;28;20227;-74
2023/03/01 04:12:34;;;;;;;6.97;5.30;;;;;18.60;101734.00;;;;2056565;28;20756;-75
2023/03/01 04:13:36;;;;;;;5.57;5.00;;;;;18.60;101734.00;;;;2056687;28;20247;-75
2023/03/01 04:14:36;;;;;;;5.60;4.93;;;;;18.70;101718.00;;;;2058453;28;20214;-75
2023/03/01 04:15:36;;;;;;;6.13;5.57;;;;;18.70;101686.00;;;;2065083;28;20705;-75
2023/03/01 04:16:37;;;;;;;5.33;4.83;;;;;18.70;101731.00;;;;2057496;28;20296;-75
2023/03/01 04:17:37;;;;;;;5.43;4.93;;;;;18.70;101737.00;;;;2056638;28;20235;-75
2023/03/01 04:18:39;;;;;;;5.32;4.82;;;;;18.60;101727.00;;;;2061216;28;20222;-74
2023/03/01 04:19:39;;;;;;;5.70;5.10;;;;;18.60;101732.00;;;;2073070;28;20738;-75
2023/03/01 04:20:40;;;;;;;5.13;4.63;;;;;18.60;101736.00;;;;2058666;28;20215;-74
2023/03/01 04:21:40;;;;;;;5.97;5.00;;;;;18.70;101738.00;;;;2057489;28;20238;-74
2023/03/01 04:22:40;;;;;;;5.53;5.13;;;;;18.70;101733.00;;;;2056552;28;20609;-74
2023/03/01 04:23:41;;;;;;;6.03;5.53;;;;;18.60;101739.00;;;;2056654;28;20734;-74
2023/03/01 04:24:41;;;;;;;5.77;5.20;;;;;18.60;101737.00;;;;2059804;28;20748;-74
2023/03/01 04:25:54;;;;;;;5.50;4.80;;;;;18.60;101732.00;;;;2065257;28;20237;-74
2023/03/01 04:26:54;;;;;;;5.40;4.90;;;;;18.60;101734.00;;;;2057510;28;20211;-75
2023/03/01 04:27:55;;;;;;;5.73;5.23;;;;;18.60;101745.00;;;;2057116;28;20251;-74
2023/03/01 04:28:55;;;;;;;5.43;4.80;;;;;18.60;101734.00;;;;2056749;28;20218;-74
2023/03/01 04:29:55;;;;;;;5.60;5.10;;;;;18.60;101734.00;;;;2060110;28;20291;-74
2023/03/01 04:30:57;;;;;;;4.87;4.47;;;;;18.60;101741.00;;;;2056876;28;20222;-74
2023/03/01 04:31:57;;;;;;;5.35;4.85;;;;;18.60;101750.00;;;;2062131;28;20634;-74
2023/03/01 04:32:57;;;;;;;5.20;4.70;;;;;18.60;101743.00;;;;2057289;28;20226;-74
2023/03/01 04:33:58;;;;;;;5.40;4.93;;;;;18.60;101743.00;;;;2057095;28;20268;-73
2023/03/01 04:34:58;;;;;;;5.30;4.80;;;;;18.60;101759.00;;;;2055811;28;20244;-75
2023/03/01 04:35:58;;;;;;;5.57;5.07;;;;;18.60;101746.00;;;;2064523;28;20229;-75
2023/03/01 04:36:59;;;;;;;5.70;5.07;;;;;18.60;101742.00;;;;2057381;28;20222;-74
2023/03/01 04:37:59;;;;;;;5.23;4.73;;;;;18.60;101739.00;;;;2056587;28;20212;-75
2023/03/01 04:38:59;;;;;;;5.20;4.67;;;;;18.60;101743.00;;;;2057399;28;20242;-74
2023/03/01 04:40:00;;;;;;;5.10;4.60;;;;;18.60;101740.00;;;;2060071;28;20284;-75
2023/03/01 04:41:00;;;;;;;6.33;5.20;;;;;18.60;101741.00;;;;2055719;28;20555;-75
2023/03/01 04:42:01;;;;;;;5.07;4.67;;;;;18.60;101742.00;;;;2055407;28;20451;-75
2023/03/01 04:43:02;;;;;;;5.00;4.60;;;;;18.60;101711.00;;;;2055147;28;20222;-75
2023/03/01 04:44:02;;;;;;;5.63;5.13;;;;;18.60;101733.00;;;;2055661;28;20220;-75
2023/03/01 04:45:12;;;;;;;5.27;4.77;;;;;18.50;101727.00;;;;2059801;28;20458;-75
2023/03/01 04:46:15;;;;;;;6.55;4.78;;;;;18.60;101739.00;;;;2063104;28;20458;-75
2023/03/01 04:47:15;;;;;;;5.15;4.75;;;;;18.50;101722.00;;;;2070059;28;20217;-76
2023/03/01 04:48:15;;;;;;;6.17;5.60;;;;;18.50;101744.00;;;;2063260;28;20230;-76
2023/03/01 04:49:16;;;;;;;5.23;4.73;;;;;18.50;101730.00;;;;2061000;28;21076;-75
2023/03/01 04:50:16;;;;;;;5.13;4.70;;;;;18.50;101721.00;;;;2063384;28;20206;-75
2023/03/01 04:51:18;;;;;;;5.50;5.00;;;;;18.10;101733.00;;;;2063465;28;20218;-75
2023/03/01 04:52:18;;;;;;;4.97;4.47;;;;;18.50;101732.00;;;;2060171;28;20616;-75
2023/03/01 04:53:18;;;;;;;5.70;4.67;;;;;18.50;101640.00;;;;2055052;28;20302;-76
2023/03/01 04:54:19;;;;;;;5.50;5.00;;;;;18.50;101737.00;;;;2057797;28;20226;-75
2023/03/01 04:55:19;;;;;;;5.10;4.60;;;;;18.50;101733.00;;;;2054046;28;20243;-75
2023/03/01 04:56:19;;;;;;;6.50;5.47;;;;;18.50;101734.00;;;;2060031;28;20222;-75
2023/03/01 04:57:20;;;;;;;4.80;4.37;;;;;18.50;101737.00;;;;2063642;28;20218;-75
2023/03/01 04:58:20;;;;;;;5.33;4.93;;;;;18.50;101737.00;;;;2060502;28;20230;-75
2023/03/01 04:59:22;;;;;;;5.60;5.10;;;;;18.50;101739.00;;;;2055557;28;20218;-76
2023/03/01 05:00:22;;;;;;;5.00;4.60;;;;;18.50;101733.00;;;;2057914;28;20226;-75
2023/03/01 05:01:23;;;;;;;5.20;4.70;;;;;18.50;101745.00;;;;2046869;28;20699;-75
2023/03/01 05:02:23;;;;;;;5.67;5.17;;;;;18.50;101728.00;;;;2054321;28;20277;-75
2023/03/01 05:03:23;;;;;;;5.40;4.93;;;;;18.50;101712.00;;;;2066507;28;20217;-75
2023/03/01 05:04:24;;;;;;;4.97;4.57;;;;;18.50;101690.00;;;;2065976;28;20249;-75
2023/03/01 05:05:30;;;;;;;5.13;4.73;;;;;18.50;101735.00;;;;2060550;28;20215;-75
2023/03/01 05:06:31;;;;;;;5.30;4.80;;;;;18.50;101729.00;;;;2051962;28;20309;-74
2023/03/01 05:07:31;;;;;;;5.00;4.60;;;;;18.50;101732.00;;;;2055171;28;20211;-75